createdAt,value
2023-05-14T00:01:16.656Z,75.06
2023-05-14T00:06:20.375Z,75.32
2023-05-14T00:11:24.894Z,75.19
2023-05-14T00:16:28.582Z,75.07
2023-05-14T00:36:23.186Z,76.40
2023-05-14T00:42:01.445Z,76.86
2023-05-14T00:47:06.363Z,77.15
2023-05-14T00:52:12.211Z,76.96
2023-05-14T00:57:41.043Z,76.89
2023-05-14T01:02:44.823Z,76.83
2023-05-14T01:08:13.878Z,76.56
2023-05-14T01:13:54.980Z,76.70
2023-05-14T01:19:00.466Z,76.75
2023-05-14T01:25:00.642Z,77.10
2023-05-14T01:30:23.576Z,77.46
2023-05-14T01:35:31.404Z,77.65
2023-05-14T01:40:37.790Z,77.87
2023-05-14T01:46:19.790Z,78.07
2023-05-14T01:51:23.800Z,78.10
2023-05-14T01:56:27.647Z,78.20
2023-05-14T02:01:32.056Z,78.23
2023-05-14T02:20:49.179Z,78.63
2023-05-14T02:30:40.397Z,78.93
2023-05-14T02:35:44.046Z,79.22
2023-05-14T02:40:47.748Z,79.44
2023-05-14T02:45:51.907Z,79.72
2023-05-14T02:51:04.721Z,79.99
2023-05-14T03:04:46.415Z,80.14
2023-05-14T03:09:50.812Z,79.47
2023-05-14T03:15:41.583Z,78.81
2023-05-14T03:20:45.401Z,78.58
2023-05-14T03:25:52.788Z,78.44
2023-05-14T03:30:56.501Z,78.86
2023-05-14T03:36:50.730Z,79.11
2023-05-14T03:41:54.756Z,78.89
2023-05-14T03:46:58.686Z,78.90
2023-05-14T03:52:02.379Z,78.71
2023-05-14T03:57:06.211Z,78.68
2023-05-14T04:02:10.426Z,78.75
2023-05-14T04:07:14.419Z,78.90
2023-05-14T04:12:18.237Z,78.73
2023-05-14T04:17:21.870Z,78.49
2023-05-14T04:23:48.963Z,78.28
2023-05-14T04:28:53.258Z,77.76
2023-05-14T04:41:31.788Z,76.49
2023-05-14T04:46:35.899Z,75.86
2023-05-14T04:56:08.422Z,74.54
2023-05-14T05:02:44.975Z,73.88
2023-05-14T05:09:30.825Z,72.81
2023-05-14T05:14:34.648Z,72.17
2023-05-14T05:19:43.560Z,71.50
2023-05-14T05:24:49.956Z,70.71
2023-05-14T05:44:44.174Z,66.95
2023-05-14T05:50:38.667Z,66.11
2023-05-14T05:55:43.679Z,64.89
2023-05-14T06:15:04.532Z,58.46
2023-05-14T06:24:24.431Z,56.33
2023-05-14T06:29:28.230Z,55.94
2023-05-14T06:35:02.913Z,54.54
2023-05-14T06:40:07.703Z,54.49
2023-05-14T06:45:14.591Z,53.83
2023-05-14T06:50:18.968Z,52.26
2023-05-14T06:55:35.006Z,51.95
2023-05-14T07:00:38.662Z,51.78
2023-05-14T07:05:49.085Z,47.60
2023-05-14T07:10:53.226Z,48.04
2023-05-14T07:16:00.052Z,47.48
2023-05-14T07:21:07.694Z,46.29
2023-05-14T07:26:11.576Z,43.19
2023-05-14T07:31:15.340Z,42.03
2023-05-14T07:37:40.924Z,40.64
2023-05-14T07:42:45.058Z,37.94
2023-05-14T07:48:40.131Z,37.71
2023-05-14T07:53:44.409Z,35.88
2023-05-14T07:58:48.891Z,34.44
2023-05-14T08:03:53.216Z,34.72
2023-05-14T08:08:57.678Z,34.48
2023-05-14T08:14:01.941Z,31.45
2023-05-14T08:19:06.339Z,31.27
2023-05-14T08:24:11.665Z,30.04
2023-05-14T08:29:16.543Z,29.75
2023-05-14T08:34:52.835Z,31.28
2023-05-14T08:41:05.940Z,31.40
2023-05-14T08:46:26.204Z,30.56
2023-05-14T09:06:57.643Z,29.41
2023-05-14T09:19:03.297Z,28.78
2023-05-14T09:24:11.188Z,28.58
2023-05-14T09:29:32.410Z,28.01
2023-05-14T09:34:41.289Z,28.30
2023-05-14T09:39:52.322Z,27.44
2023-05-14T09:45:02.190Z,26.42
2023-05-14T10:04:27.092Z,26.80
2023-05-14T10:09:40.254Z,25.67
2023-05-14T10:21:47.921Z,25.05
2023-05-14T10:26:52.072Z,25.84
2023-05-14T10:31:56.283Z,25.58
2023-05-14T10:37:03.226Z,25.00
2023-05-14T10:42:09.289Z,24.90
2023-05-14T10:47:14.431Z,25.87
2023-05-14T10:52:20.109Z,24.16
2023-05-14T11:05:00.152Z,24.63
2023-05-14T11:10:13.945Z,24.88
2023-05-14T11:15:48.427Z,24.45
2023-05-14T11:29:21.219Z,25.27
2023-05-14T11:34:27.594Z,25.18
2023-05-14T11:46:37.321Z,26.38
2023-05-14T11:51:41.361Z,26.65
2023-05-14T11:58:24.512Z,27.51
2023-05-14T12:03:33.221Z,28.67
2023-05-14T12:08:39.445Z,29.44
2023-05-14T12:14:40.600Z,30.25
2023-05-14T12:19:48.078Z,29.99
2023-05-14T12:25:00.533Z,28.33
2023-05-14T12:30:20.054Z,27.68
2023-05-14T12:35:31.841Z,27.95
2023-05-14T12:49:13.196Z,29.25
2023-05-14T12:54:17.028Z,28.86
2023-05-14T13:03:45.741Z,29.17
2023-05-14T13:08:52.266Z,27.59
2023-05-14T13:13:57.923Z,27.39
2023-05-14T13:19:01.809Z,26.06
2023-05-14T13:24:08.324Z,27.08
2023-05-14T13:29:13.807Z,27.50
2023-05-14T13:34:17.781Z,27.30
2023-05-14T13:39:27.811Z,27.31
2023-05-14T13:44:32.759Z,27.25
2023-05-14T13:49:36.699Z,26.33
2023-05-14T13:54:43.346Z,26.06
2023-05-14T13:59:47.617Z,25.88
2023-05-14T14:04:52.504Z,25.45
2023-05-14T14:09:56.637Z,25.25
2023-05-14T14:29:44.660Z,24.95
2023-05-14T14:42:17.166Z,23.80
2023-05-14T14:47:21.398Z,23.99
2023-05-14T14:52:27.092Z,24.82
2023-05-14T14:57:31.264Z,25.72
2023-05-14T15:02:38.328Z,25.03
2023-05-14T15:27:44.542Z,21.88
2023-05-14T15:33:51.485Z,22.47
2023-05-14T15:39:53.304Z,23.24
2023-05-14T15:44:58.464Z,23.72
2023-05-14T15:50:33.192Z,23.13
2023-05-14T15:56:54.621Z,22.95
2023-05-14T16:01:58.598Z,23.19
2023-05-14T16:07:05.150Z,22.37
2023-05-14T16:12:10.207Z,22.73
2023-05-14T16:17:14.269Z,23.19
2023-05-14T16:22:17.905Z,23.71
2023-05-14T16:27:36.839Z,23.76
2023-05-14T16:32:45.504Z,24.48
2023-05-14T16:44:57.817Z,25.19
2023-05-14T16:53:31.839Z,25.45
2023-05-14T16:58:49.640Z,26.01
2023-05-14T17:11:27.128Z,27.17
2023-05-14T17:25:59.032Z,28.13
2023-05-14T17:32:18.575Z,28.45
2023-05-14T17:44:34.536Z,29.73
2023-05-14T17:49:38.268Z,30.25
2023-05-14T17:54:42.096Z,30.77
2023-05-14T17:59:45.864Z,31.36
2023-05-14T18:04:50.108Z,31.73
2023-05-14T18:09:54.365Z,31.92
2023-05-14T18:14:58.317Z,32.11
2023-05-14T18:20:02.520Z,32.46
2023-05-14T18:25:07.638Z,33.06
2023-05-14T18:30:16.620Z,34.81
2023-05-14T18:35:46.420Z,36.53
2023-05-14T18:48:17.792Z,39.69
2023-05-14T18:53:22.586Z,41.28
2023-05-14T18:59:16.386Z,42.04
2023-05-14T19:04:20.658Z,43.68
2023-05-14T19:09:28.092Z,44.63
2023-05-14T19:14:31.673Z,45.26
2023-05-14T19:19:35.791Z,46.13
2023-05-14T19:24:43.866Z,47.24
2023-05-14T19:29:52.108Z,47.97
2023-05-14T19:35:48.530Z,48.63
2023-05-14T19:40:58.078Z,48.46
2023-05-14T19:46:09.929Z,48.96
2023-05-14T19:51:17.751Z,49.67
2023-05-14T19:56:30.200Z,50.44
2023-05-14T20:01:35.822Z,51.08
2023-05-14T20:06:40.655Z,51.52
2023-05-14T20:11:44.292Z,52.19
2023-05-14T20:16:49.237Z,53.37
2023-05-14T20:21:53.215Z,55.11
2023-05-14T20:27:37.942Z,55.40
2023-05-14T20:47:34.456Z,58.94
2023-05-14T20:52:41.640Z,59.26
2023-05-14T20:57:46.891Z,58.51
2023-05-14T21:02:50.655Z,58.11
2023-05-14T21:07:54.246Z,58.83
2023-05-14T21:13:23.226Z,58.78
2023-05-14T21:19:11.688Z,59.51
2023-05-14T21:24:17.109Z,60.47
2023-05-14T21:29:20.757Z,61.12
2023-05-14T21:34:24.425Z,61.24
2023-05-14T21:39:28.481Z,62.46
2023-05-14T21:44:32.165Z,63.24
2023-05-14T21:49:36.089Z,64.25
2023-05-14T21:54:40.039Z,64.34
2023-05-14T21:59:43.639Z,64.76
2023-05-14T22:04:48.702Z,65.42
2023-05-14T22:09:52.780Z,66.46
2023-05-14T22:14:56.555Z,67.15
2023-05-14T22:20:01.814Z,67.38
2023-05-14T22:25:06.111Z,67.77
2023-05-14T22:30:10.195Z,68.14
2023-05-14T22:35:17.498Z,67.97
2023-05-14T22:40:21.409Z,67.25
2023-05-14T22:45:29.060Z,66.72
2023-05-14T22:50:33.130Z,66.69
2023-05-14T22:55:42.640Z,67.46
2023-05-14T23:00:46.286Z,67.99
2023-05-14T23:05:50.021Z,67.75
2023-05-14T23:18:15.066Z,67.55
2023-05-14T23:23:18.800Z,67.51
2023-05-14T23:28:22.541Z,67.58
2023-05-14T23:33:26.185Z,67.69
2023-05-14T23:38:29.947Z,68.13
2023-05-14T23:43:34.192Z,68.67
2023-05-14T23:49:30.138Z,69.06
2023-05-14T23:54:33.982Z,70.54
2023-05-14T23:59:39.774Z,71.22
